FACT/CPT METAR and TAF weather

Enter ICAO airport designator
Station Type Date Time Source
FACT METAR 2022/06/30 14:00 UTC NOAA

FACT 301400Z 31009KT CAVOK 23/07 Q1018 NOSIG


Station Type Date Time Source
FACT Decoded METAR 2022/06/30 14:00 UTC NOAA

Cape Town, Cape Town International Airport, South Africa (FACT) 33-59S 018-36E 0M
Jun 30, 2022 - 10:00 AM EDT / 2022.06.30 1400 UTC
Wind: from the NW (310 degrees) at 10 MPH (9 KT):0
Visibility: greater than 7 mile(s):0
Temperature: 73 F (23 C)
Dew Point: 44 F (7 C)
Relative Humidity: 35%
Pressure (altimeter): 30.06 in. Hg (1018 hPa)
ob: FACT 301400Z 31009KT CAVOK 23/07 Q1018 NOSIG
cycle: 14

Station Type Date Time Source
FACT TAF 2022/06/30 12:09 UTC NOAA

TAF TAF FACT 301000Z 3012/0118 36015KT CAVOK TX26/3012Z TN14/0106Z
BECMG 3016/3018 02005KT
BECMG 0108/0110 34018KT

Example: see airport list